Time;durP1;ratioP1;P1;durP2;ratioP2;P2;SDS_P1;SDS_P2;PMS_P1;PMS_P2;Temp;Humidity;BMP_temperature;BMP_pressure;BME280_temperature;BME280_humidity;BME280_pressure;Samples;Min_cycle;Max_cycle;Signal;HPM_P1;HPM_P2
2021/08/24 00:01:09;;;;;;;0.30;0.30;;;19.00;50.90;;;;;;4953173;28;20227;-63
2021/08/24 00:03:39;;;;;;;1.02;0.32;;;19.00;50.90;;;;;;4934569;28;20286;-63
2021/08/24 00:06:10;;;;;;;0.38;0.20;;;19.00;50.90;;;;;;4950580;29;20287;-66
2021/08/24 00:08:41;;;;;;;0.10;0.10;;;19.00;50.90;;;;;;4950552;28;20290;-64
2021/08/24 00:11:11;;;;;;;0.13;0.13;;;19.00;50.90;;;;;;4952859;28;20278;-62
2021/08/24 00:13:42;;;;;;;0.32;0.20;;;19.00;50.80;;;;;;4952877;28;20230;-54
2021/08/24 00:16:17;;;;;;;0.88;0.20;;;19.10;50.90;;;;;;4951756;28;20718;-60
2021/08/24 00:18:47;;;;;;;0.20;0.20;;;19.10;50.90;;;;;;4952540;28;20682;-63
2021/08/24 00:21:18;;;;;;;0.20;0.20;;;19.10;50.90;;;;;;4953598;28;20307;-63
2021/08/24 00:23:48;;;;;;;0.10;0.10;;;19.10;50.90;;;;;;4952942;28;20245;-57
2021/08/24 00:26:18;;;;;;;0.82;0.30;;;19.10;50.90;;;;;;4953655;28;20308;-60
2021/08/24 00:28:49;;;;;;;0.85;0.20;;;19.20;50.90;;;;;;4952274;28;20231;-60
2021/08/24 00:31:21;;;;;;;0.52;0.30;;;19.20;50.90;;;;;;4953109;28;20266;-55
2021/08/24 00:33:52;;;;;;;0.30;0.30;;;19.20;50.90;;;;;;4953402;28;20290;-59
2021/08/24 00:36:22;;;;;;;0.20;0.20;;;19.20;50.90;;;;;;4953066;28;20237;-62
2021/08/24 00:38:52;;;;;;;0.25;0.25;;;19.20;50.90;;;;;;4953095;28;20254;-62
2021/08/24 00:41:23;;;;;;;1.50;0.30;;;19.30;51.00;;;;;;4953330;28;20250;-57
2021/08/24 00:43:53;;;;;;;1.13;0.20;;;19.30;51.10;;;;;;4953552;28;20234;-57
2021/08/24 00:46:34;;;;;;;0.30;0.30;;;19.30;51.00;;;;;;4952589;28;20230;-62
2021/08/24 00:49:06;;;;;;;0.20;0.20;;;19.30;51.00;;;;;;4952888;28;20283;-45
2021/08/24 00:51:37;;;;;;;0.20;0.20;;;19.40;51.00;;;;;;4952256;28;20258;-57
2021/08/24 00:54:08;;;;;;;1.00;0.20;;;19.40;50.80;;;;;;4951544;28;20241;-57
2021/08/24 00:56:38;;;;;;;0.30;0.20;;;19.40;50.90;;;;;;4952673;28;20203;-59
2021/08/24 00:59:09;;;;;;;0.70;0.30;;;19.40;50.90;;;;;;4952715;28;20286;-61
2021/08/24 01:01:41;;;;;;;0.50;0.20;;;19.50;50.90;;;;;;4952259;28;20206;-66
2021/08/24 01:04:11;;;;;;;0.20;0.20;;;19.50;50.90;;;;;;4952511;28;20519;-52
2021/08/24 01:06:44;;;;;;;1.10;0.20;;;19.50;50.80;;;;;;4952264;28;20230;-58
2021/08/24 01:09:23;;;;;;;0.20;0.20;;;19.50;50.80;;;;;;4952094;28;20230;-63
2021/08/24 01:11:57;;;;;;;0.10;0.10;;;19.60;50.80;;;;;;4952360;28;20321;-62
2021/08/24 01:14:31;;;;;;;0.65;0.20;;;19.60;50.80;;;;;;4951704;28;20238;-57
2021/08/24 01:17:09;;;;;;;0.20;0.20;;;19.60;50.80;;;;;;4951907;28;20230;-62
2021/08/24 01:20:13;;;;;;;0.15;0.15;;;19.60;50.70;;;;;;4951839;28;20738;-63
2021/08/24 01:23:17;;;;;;;0.10;0.10;;;19.60;50.70;;;;;;4953175;28;20230;-56
2021/08/24 01:25:51;;;;;;;0.45;0.20;;;19.70;50.70;;;;;;4951983;28;20679;-60
2021/08/24 01:28:27;;;;;;;1.40;0.30;;;19.70;50.60;;;;;;4949457;28;20253;-64
2021/08/24 01:31:27;;;;;;;0.43;0.30;;;19.70;50.60;;;;;;4951871;28;20362;-64
2021/08/24 01:34:06;;;;;;;0.45;0.30;;;19.70;50.80;;;;;;4950574;29;20199;-64
2021/08/24 01:36:40;;;;;;;0.75;0.30;;;19.80;50.90;;;;;;4948606;29;20207;-50
2021/08/24 01:39:11;;;;;;;0.20;0.20;;;19.80;50.90;;;;;;4952492;28;20722;-59
2021/08/24 01:42:00;;;;;;;0.20;0.20;;;19.80;50.90;;;;;;4951867;28;20237;-64
2021/08/24 01:44:32;;;;;;;0.20;0.20;;;19.90;50.90;;;;;;4952998;28;20199;-54
2021/08/24 01:47:04;;;;;;;0.20;0.20;;;19.90;50.80;;;;;;4946388;28;20206;-62
2021/08/24 01:49:35;;;;;;;0.57;0.30;;;19.90;50.90;;;;;;4952429;28;20195;-65
2021/08/24 01:52:09;;;;;;;1.20;0.30;;;19.90;50.90;;;;;;4948510;28;20317;-54
2021/08/24 01:54:41;;;;;;;0.20;0.17;;;19.90;50.90;;;;;;4933222;29;20639;-52
2021/08/24 01:57:12;;;;;;;0.13;0.13;;;20.00;50.80;;;;;;4933104;29;20711;-55
2021/08/24 01:59:44;;;;;;;0.30;0.30;;;20.00;50.80;;;;;;4932648;29;20239;-58
2021/08/24 02:02:15;;;;;;;0.28;0.28;;;20.10;50.80;;;;;;4933293;29;20298;-47
2021/08/24 02:04:49;;;;;;;0.20;0.20;;;20.10;50.80;;;;;;4949447;29;20238;-59
2021/08/24 02:07:21;;;;;;;0.43;0.20;;;20.10;51.40;;;;;;4953397;28;20223;-65
2021/08/24 02:09:53;;;;;;;0.20;0.20;;;20.10;50.80;;;;;;4956188;28;20242;-65
2021/08/24 02:12:25;;;;;;;0.15;0.15;;;20.20;50.90;;;;;;4956319;28;20262;-65
2021/08/24 02:14:55;;;;;;;0.38;0.28;;;20.20;50.90;;;;;;4956379;28;20258;-56
2021/08/24 02:17:26;;;;;;;0.98;0.30;;;20.20;50.90;;;;;;4956473;28;20255;-65
2021/08/24 02:19:58;;;;;;;0.35;0.20;;;20.30;50.90;;;;;;4956022;28;20242;-62
2021/08/24 02:22:31;;;;;;;0.20;0.20;;;20.30;50.80;;;;;;4955930;28;20294;-56
2021/08/24 02:25:04;;;;;;;0.20;0.20;;;20.30;50.70;;;;;;4955681;28;20241;-50
2021/08/24 02:27:35;;;;;;;0.20;0.20;;;20.40;50.80;;;;;;4955857;28;20303;-65
2021/08/24 02:30:06;;;;;;;0.20;0.20;;;20.40;51.30;;;;;;4956416;28;20300;-55
2021/08/24 02:32:37;;;;;;;0.30;0.15;;;20.40;50.70;;;;;;4955904;28;20318;-66
2021/08/24 02:35:09;;;;;;;0.20;0.20;;;20.50;50.70;;;;;;4955744;28;20230;-66
2021/08/24 02:37:44;;;;;;;0.95;0.20;;;20.50;50.70;;;;;;4955381;28;20258;-57
2021/08/24 02:40:18;;;;;;;0.20;0.20;;;20.50;50.70;;;;;;4955794;28;20237;-65
2021/08/24 02:42:52;;;;;;;0.20;0.20;;;20.60;50.70;;;;;;4955893;28;20258;-56
2021/08/24 02:45:25;;;;;;;0.13;0.13;;;20.60;50.70;;;;;;4955387;28;20230;-60
2021/08/24 02:47:56;;;;;;;0.85;0.20;;;20.60;50.70;;;;;;4954778;28;20258;-60
2021/08/24 02:50:28;;;;;;;0.10;0.10;;;20.70;50.80;;;;;;4955547;28;20241;-56
2021/08/24 02:53:00;;;;;;;0.20;0.20;;;20.70;50.80;;;;;;4955302;28;20281;-56
2021/08/24 02:55:31;;;;;;;0.55;0.10;;;20.70;50.80;;;;;;4954366;28;20230;-53
2021/08/24 02:58:04;;;;;;;0.20;0.20;;;20.80;50.70;;;;;;4954303;28;20211;-65
2021/08/24 03:00:34;;;;;;;0.20;0.20;;;20.80;50.70;;;;;;4955041;28;20203;-50
2021/08/24 03:03:05;;;;;;;0.20;0.20;;;20.90;50.70;;;;;;4954804;28;20283;-51
2021/08/24 03:05:35;;;;;;;0.20;0.20;;;20.90;50.60;;;;;;4954243;28;20234;-52
2021/08/24 03:08:08;;;;;;;0.20;0.20;;;20.90;50.60;;;;;;4936844;28;20270;-60
2021/08/24 03:10:38;;;;;;;0.30;0.20;;;21.00;50.50;;;;;;4931326;29;20227;-65
2021/08/24 03:13:12;;;;;;;0.10;0.10;;;21.00;50.50;;;;;;4935164;29;20277;-58
2021/08/24 03:15:46;;;;;;;0.73;0.20;;;21.10;50.50;;;;;;4934601;29;20200;-65
2021/08/24 03:18:18;;;;;;;0.20;0.20;;;21.00;50.40;;;;;;4934389;29;20262;-66
2021/08/24 03:20:49;;;;;;;0.28;0.28;;;21.10;50.40;;;;;;4934279;29;20661;-62
2021/08/24 03:23:22;;;;;;;0.20;0.20;;;21.10;50.40;;;;;;4934946;29;20258;-64
2021/08/24 03:25:52;;;;;;;0.20;0.20;;;21.20;50.40;;;;;;4934646;29;20568;-65
2021/08/24 03:28:24;;;;;;;0.20;0.20;;;21.20;50.30;;;;;;4937744;29;20758;-63
2021/08/24 03:30:54;;;;;;;0.30;0.30;;;21.30;50.30;;;;;;4933540;29;20263;-65
2021/08/24 03:33:25;;;;;;;0.50;0.25;;;21.30;50.30;;;;;;4934257;29;20286;-63
2021/08/24 03:35:55;;;;;;;0.43;0.28;;;21.30;50.30;;;;;;4949990;29;20672;-65
2021/08/24 03:38:27;;;;;;;0.43;0.20;;;21.30;50.30;;;;;;4954112;28;20656;-66
2021/08/24 03:40:58;;;;;;;0.32;0.20;;;21.40;50.20;;;;;;4954565;28;20286;-62
2021/08/24 03:43:28;;;;;;;0.10;0.10;;;21.40;50.20;;;;;;4954357;28;20245;-65
2021/08/24 03:45:59;;;;;;;0.20;0.20;;;21.50;50.20;;;;;;4954170;28;20286;-65
2021/08/24 03:48:29;;;;;;;1.83;0.30;;;21.50;50.10;;;;;;4954558;28;20250;-65
2021/08/24 03:50:59;;;;;;;0.20;0.20;;;21.50;49.90;;;;;;4954612;28;20207;-63
2021/08/24 03:53:32;;;;;;;0.20;0.20;;;21.60;49.70;;;;;;4954542;28;20703;-56
2021/08/24 03:56:02;;;;;;;0.47;0.20;;;21.60;50.00;;;;;;4953829;28;20281;-55
2021/08/24 03:58:33;;;;;;;0.20;0.20;;;21.60;49.90;;;;;;4937973;28;20532;-62
2021/08/24 04:01:04;;;;;;;0.20;0.20;;;21.70;49.90;;;;;;4933422;29;20253;-64
2021/08/24 04:03:34;;;;;;;0.25;0.20;;;21.70;50.00;;;;;;4933917;29;20605;-55
2021/08/24 04:06:05;;;;;;;1.17;0.28;;;21.70;50.00;;;;;;4950753;29;20230;-64
2021/08/24 04:08:40;;;;;;;0.30;0.30;;;21.80;50.10;;;;;;4951524;28;20725;-64
2021/08/24 04:11:11;;;;;;;1.27;0.28;;;21.80;50.10;;;;;;4934714;29;20301;-64
2021/08/24 04:13:41;;;;;;;0.30;0.30;;;21.80;50.10;;;;;;4942793;29;20225;-50
2021/08/24 04:16:12;;;;;;;0.20;0.20;;;21.80;50.00;;;;;;4952510;28;20242;-64
2021/08/24 04:18:43;;;;;;;0.20;0.20;;;21.90;50.00;;;;;;4953649;28;20261;-64
2021/08/24 04:21:14;;;;;;;0.20;0.20;;;21.90;50.00;;;;;;4953151;28;20195;-58
2021/08/24 04:23:47;;;;;;;0.20;0.20;;;21.90;49.90;;;;;;4953683;28;20741;-62
2021/08/24 04:26:18;;;;;;;0.20;0.20;;;22.00;49.80;;;;;;4941057;28;20672;-58
2021/08/24 04:28:48;;;;;;;0.20;0.20;;;22.00;49.70;;;;;;4933702;29;20636;-64
2021/08/24 04:31:19;;;;;;;0.17;0.17;;;22.00;49.70;;;;;;4938834;29;20199;-61
2021/08/24 04:33:49;;;;;;;0.85;0.30;;;22.00;49.70;;;;;;4946204;29;20270;-62
2021/08/24 04:36:19;;;;;;;1.30;0.20;;;22.00;49.50;;;;;;4953440;28;20234;-64
2021/08/24 04:38:52;;;;;;;0.43;0.20;;;22.10;49.50;;;;;;4953140;28;20277;-57
2021/08/24 04:41:22;;;;;;;0.80;0.30;;;22.10;49.40;;;;;;4952876;28;20298;-64
2021/08/24 04:43:52;;;;;;;0.40;0.38;;;22.10;49.30;;;;;;4953157;28;20610;-60
2021/08/24 04:46:23;;;;;;;0.35;0.20;;;22.10;49.20;;;;;;4952184;28;20620;-53
2021/08/24 04:48:53;;;;;;;0.50;0.20;;;22.10;49.10;;;;;;4952104;28;20270;-65
2021/08/24 04:51:24;;;;;;;0.20;0.20;;;22.20;49.10;;;;;;4953452;28;20226;-58
2021/08/24 04:53:56;;;;;;;0.28;0.28;;;22.20;49.10;;;;;;4953041;28;20259;-57
2021/08/24 04:56:27;;;;;;;0.47;0.30;;;22.20;49.10;;;;;;4952854;28;20253;-65
2021/08/24 04:58:58;;;;;;;0.20;0.20;;;22.20;49.10;;;;;;4952943;28;20270;-52
2021/08/24 05:01:28;;;;;;;0.20;0.20;;;22.20;49.20;;;;;;4952412;28;20221;-64
2021/08/24 05:03:59;;;;;;;2.22;0.32;;;22.20;49.10;;;;;;4952338;28;20242;-52
2021/08/24 05:06:29;;;;;;;0.22;0.22;;;22.20;48.90;;;;;;4951733;28;20198;-56
2021/08/24 05:09:02;;;;;;;0.20;0.15;;;22.20;49.10;;;;;;4952676;28;20230;-62
2021/08/24 05:11:32;;;;;;;0.47;0.30;;;22.30;48.90;;;;;;4952649;28;20199;-60
2021/08/24 05:14:03;;;;;;;0.60;0.40;;;22.30;49.40;;;;;;4952845;28;20230;-64
2021/08/24 05:16:35;;;;;;;0.20;0.20;;;22.20;48.70;;;;;;4953106;28;20198;-65
2021/08/24 05:19:05;;;;;;;0.20;0.20;;;22.20;48.50;;;;;;4953346;28;20282;-66
2021/08/24 05:21:37;;;;;;;0.13;0.13;;;22.30;48.50;;;;;;4953169;28;20203;-64
2021/08/24 05:24:09;;;;;;;0.20;0.10;;;22.20;48.50;;;;;;4952802;28;20206;-65
2021/08/24 05:26:40;;;;;;;1.75;0.30;;;22.20;48.40;;;;;;4952530;28;20566;-65
2021/08/24 05:29:12;;;;;;;0.20;0.20;;;22.20;48.20;;;;;;4952799;28;20198;-64
2021/08/24 05:31:42;;;;;;;0.75;0.20;;;22.20;48.10;;;;;;4947508;28;20198;-65
2021/08/24 05:34:13;;;;;;;0.32;0.20;;;22.20;47.80;;;;;;4935016;29;20234;-65
2021/08/24 05:36:44;;;;;;;0.70;0.10;;;22.20;47.90;;;;;;4953090;28;20210;-65
2021/08/24 05:39:16;;;;;;;0.47;0.30;;;22.20;48.00;;;;;;4953009;28;20210;-65
2021/08/24 05:41:47;;;;;;;0.30;0.20;;;22.10;47.90;;;;;;4954871;28;20203;-61
2021/08/24 05:44:17;;;;;;;0.77;0.20;;;22.10;47.90;;;;;;4957626;28;20203;-65
2021/08/24 05:46:48;;;;;;;1.90;0.20;;;22.10;47.90;;;;;;4957002;28;20659;-65
2021/08/24 05:49:19;;;;;;;0.55;0.30;;;22.10;47.90;;;;;;4957104;28;20214;-65
2021/08/24 05:51:49;;;;;;;0.35;0.20;;;22.10;47.90;;;;;;4957128;28;20214;-61
2021/08/24 05:54:22;;;;;;;0.40;0.25;;;22.10;48.20;;;;;;4957108;28;20702;-46
2021/08/24 05:56:52;;;;;;;0.55;0.40;;;22.00;48.20;;;;;;4956427;28;20202;-58
2021/08/24 05:59:23;;;;;;;1.17;0.20;;;22.00;48.30;;;;;;4956677;28;20270;-47
2021/08/24 06:01:53;;;;;;;0.50;0.20;;;22.00;48.20;;;;;;4956656;28;20655;-58
2021/08/24 06:04:24;;;;;;;0.20;0.20;;;22.00;48.40;;;;;;4956471;28;20218;-60
2021/08/24 06:06:54;;;;;;;0.22;0.20;;;22.00;48.40;;;;;;4956656;28;20194;-51
2021/08/24 06:09:27;;;;;;;0.20;0.20;;;21.90;48.40;;;;;;4956738;28;20659;-53
2021/08/24 06:11:57;;;;;;;0.52;0.20;;;21.90;48.40;;;;;;4955970;28;20257;-57
2021/08/24 06:14:28;;;;;;;0.30;0.25;;;21.90;48.50;;;;;;4956118;28;20222;-52
2021/08/24 06:16:59;;;;;;;0.47;0.30;;;21.90;49.00;;;;;;4955479;28;20195;-58
2021/08/24 06:19:30;;;;;;;0.22;0.20;;;21.80;48.60;;;;;;4954212;28;20191;-67
2021/08/24 06:22:01;;;;;;;0.82;0.30;;;21.80;48.60;;;;;;4956273;28;20678;-62
2021/08/24 06:24:35;;;;;;;0.35;0.30;;;21.80;48.70;;;;;;4956550;28;20202;-66
2021/08/24 06:27:06;;;;;;;0.20;0.20;;;21.80;49.20;;;;;;4956128;28;20218;-62
2021/08/24 06:29:37;;;;;;;0.63;0.40;;;21.70;48.70;;;;;;4956180;28;20203;-68
2021/08/24 06:32:09;;;;;;;0.28;0.20;;;21.70;48.80;;;;;;4955575;28;20202;-68
2021/08/24 06:34:39;;;;;;;0.20;0.20;;;21.70;48.80;;;;;;4956249;28;20290;-68
2021/08/24 06:37:10;;;;;;;0.30;0.30;;;21.70;48.90;;;;;;4955838;28;20223;-68
2021/08/24 06:39:43;;;;;;;0.20;0.20;;;21.60;48.80;;;;;;4955548;28;20207;-68
2021/08/24 06:42:13;;;;;;;0.20;0.20;;;21.60;48.80;;;;;;4955791;28;20565;-56
2021/08/24 06:44:44;;;;;;;0.38;0.30;;;21.60;48.80;;;;;;4955775;28;20202;-61
2021/08/24 06:47:15;;;;;;;0.30;0.30;;;21.60;48.90;;;;;;4955417;28;20646;-66
2021/08/24 06:49:45;;;;;;;0.20;0.20;;;21.50;48.80;;;;;;4955791;28;20199;-68
2021/08/24 06:52:16;;;;;;;0.25;0.25;;;21.50;48.90;;;;;;4955587;28;20284;-68
2021/08/24 06:54:48;;;;;;;0.63;0.30;;;21.50;48.90;;;;;;4955360;28;20628;-69
2021/08/24 06:57:19;;;;;;;0.93;0.25;;;21.50;48.90;;;;;;4955662;28;20526;-68
2021/08/24 06:59:49;;;;;;;1.40;0.40;;;21.40;49.00;;;;;;4955982;28;20195;-63
2021/08/24 07:02:20;;;;;;;0.40;0.20;;;21.40;49.00;;;;;;4955604;28;20675;-67
2021/08/24 07:04:50;;;;;;;0.60;0.32;;;21.40;49.10;;;;;;4955767;28;20198;-67
2021/08/24 07:07:22;;;;;;;0.38;0.30;;;21.40;49.10;;;;;;4955454;28;20226;-67
2021/08/24 07:09:54;;;;;;;0.20;0.20;;;21.30;49.10;;;;;;4955344;28;20230;-67
2021/08/24 07:12:25;;;;;;;0.20;0.20;;;21.30;49.10;;;;;;4955039;28;20601;-68
2021/08/24 07:14:56;;;;;;;0.30;0.30;;;21.30;49.20;;;;;;4955472;28;20214;-67
2021/08/24 07:17:26;;;;;;;0.20;0.20;;;21.30;49.20;;;;;;4955596;28;20632;-68
2021/08/24 07:19:57;;;;;;;0.20;0.20;;;21.20;49.20;;;;;;4955642;28;20206;-64
2021/08/24 07:22:27;;;;;;;0.73;0.30;;;21.20;49.20;;;;;;4955660;28;20199;-68
2021/08/24 07:25:00;;;;;;;0.30;0.30;;;21.20;49.20;;;;;;4955417;28;20224;-68
2021/08/24 07:27:30;;;;;;;0.20;0.20;;;21.10;49.20;;;;;;4955396;28;20238;-63
2021/08/24 07:30:01;;;;;;;0.25;0.25;;;21.10;49.20;;;;;;4955218;28;20581;-63
2021/08/24 07:32:31;;;;;;;0.30;0.30;;;21.10;49.20;;;;;;4954475;28;20210;-68
2021/08/24 07:35:02;;;;;;;1.10;0.30;;;21.10;49.30;;;;;;4954774;28;20206;-68
2021/08/24 07:37:33;;;;;;;0.55;0.20;;;21.10;49.30;;;;;;4953910;28;20304;-68
2021/08/24 07:40:06;;;;;;;0.73;0.30;;;21.00;50.00;;;;;;4937639;29;20203;-67
2021/08/24 07:42:36;;;;;;;0.32;0.30;;;21.00;49.40;;;;;;4935982;29;20200;-65
2021/08/24 07:45:08;;;;;;;1.55;0.38;;;21.00;49.40;;;;;;4936147;29;20345;-69
2021/08/24 07:47:38;;;;;;;0.20;0.20;;;21.00;49.40;;;;;;4935318;29;20219;-63
2021/08/24 07:50:09;;;;;;;0.88;0.38;;;21.00;49.40;;;;;;4935521;29;20656;-63
2021/08/24 07:52:40;;;;;;;0.20;0.20;;;20.90;49.40;;;;;;4934919;29;20203;-60
2021/08/24 07:55:13;;;;;;;0.30;0.30;;;20.90;49.40;;;;;;4934781;29;20283;-65
2021/08/24 07:57:45;;;;;;;0.73;0.30;;;20.90;49.40;;;;;;4934739;29;20255;-65
2021/08/24 08:00:16;;;;;;;0.32;0.25;;;20.90;49.40;;;;;;4934833;29;20408;-64
2021/08/24 08:02:47;;;;;;;0.32;0.32;;;20.90;49.40;;;;;;4935034;29;20203;-68
2021/08/24 08:05:18;;;;;;;0.98;0.40;;;20.90;49.50;;;;;;4944439;29;20210;-69
2021/08/24 08:07:49;;;;;;;0.55;0.35;;;20.90;49.50;;;;;;4954207;28;20305;-63
2021/08/24 08:10:21;;;;;;;1.13;0.40;;;20.80;50.10;;;;;;4953888;28;20203;-69
2021/08/24 08:12:52;;;;;;;0.20;0.20;;;20.80;49.50;;;;;;4953899;28;20242;-50
2021/08/24 08:15:23;;;;;;;0.68;0.30;;;20.80;49.50;;;;;;4954523;28;20195;-67
2021/08/24 08:17:53;;;;;;;0.65;0.30;;;20.70;49.60;;;;;;4954568;28;20313;-63
2021/08/24 08:20:24;;;;;;;0.60;0.30;;;20.70;49.70;;;;;;4953833;28;20199;-54
2021/08/24 08:22:55;;;;;;;0.88;0.40;;;20.70;49.80;;;;;;4950459;28;20197;-64
2021/08/24 08:25:28;;;;;;;2.95;0.43;;;20.70;49.80;;;;;;4953432;28;20254;-64
2021/08/24 08:27:59;;;;;;;1.60;0.40;;;20.70;49.80;;;;;;4953207;28;20215;-56
2021/08/24 08:30:30;;;;;;;0.25;0.20;;;20.60;49.70;;;;;;4953503;29;20685;-61
2021/08/24 08:33:01;;;;;;;1.42;0.50;;;20.60;49.80;;;;;;4953362;28;20291;-56
2021/08/24 08:35:31;;;;;;;0.55;0.40;;;20.60;49.80;;;;;;4953717;28;20262;-64
2021/08/24 08:38:02;;;;;;;0.77;0.30;;;20.60;49.80;;;;;;4953941;28;20214;-58
2021/08/24 08:40:37;;;;;;;0.35;0.32;;;20.60;49.80;;;;;;4953812;28;20206;-68
2021/08/24 08:43:17;;;;;;;0.40;0.38;;;20.50;49.70;;;;;;4953841;28;20203;-55
2021/08/24 08:45:49;;;;;;;0.47;0.20;;;20.50;49.70;;;;;;4949731;28;20202;-63
2021/08/24 08:48:32;;;;;;;1.27;0.47;;;20.50;49.80;;;;;;4952444;28;20226;-61
2021/08/24 08:51:06;;;;;;;0.70;0.30;;;20.50;49.90;;;;;;4951749;28;20207;-49
2021/08/24 08:53:40;;;;;;;1.25;0.50;;;20.50;49.90;;;;;;4953672;28;20280;-46
2021/08/24 08:56:14;;;;;;;0.40;0.30;;;20.40;49.80;;;;;;4953096;28;20213;-57
2021/08/24 08:58:57;;;;;;;0.68;0.40;;;20.40;49.80;;;;;;4953045;28;20226;-63
2021/08/24 09:01:31;;;;;;;0.80;0.47;;;20.40;49.90;;;;;;4952847;28;20226;-51
2021/08/24 09:04:07;;;;;;;0.38;0.28;;;20.40;49.90;;;;;;4952520;28;20232;-51
2021/08/24 09:06:37;;;;;;;0.40;0.28;;;20.30;49.90;;;;;;4952164;28;20198;-67
2021/08/24 09:09:08;;;;;;;0.77;0.40;;;20.30;49.90;;;;;;4952095;28;20600;-59
2021/08/24 09:11:49;;;;;;;0.65;0.30;;;20.30;49.90;;;;;;4951919;28;20298;-50
2021/08/24 09:14:22;;;;;;;1.17;0.40;;;20.30;49.90;;;;;;4952300;28;20238;-64
2021/08/24 09:16:56;;;;;;;2.53;0.32;;;20.30;49.90;;;;;;4952015;28;20630;-60
2021/08/24 09:19:28;;;;;;;2.40;0.40;;;20.20;49.90;;;;;;4952904;28;20665;-63
2021/08/24 09:21:58;;;;;;;0.57;0.50;;;20.20;49.80;;;;;;4953112;28;20195;-59
2021/08/24 09:24:30;;;;;;;1.00;0.40;;;20.20;49.90;;;;;;4952972;28;20195;-50
2021/08/24 09:27:04;;;;;;;1.10;0.30;;;20.20;49.80;;;;;;4952598;28;20199;-54
2021/08/24 09:29:36;;;;;;;1.02;0.22;;;20.20;49.90;;;;;;4949026;28;20758;-52
2021/08/24 09:32:07;;;;;;;0.77;0.22;;;20.20;49.90;;;;;;4953358;28;20603;-53
2021/08/24 09:34:38;;;;;;;0.50;0.40;;;20.10;49.80;;;;;;4952622;28;20644;-58
2021/08/24 09:37:09;;;;;;;0.90;0.32;;;20.10;49.90;;;;;;4952295;28;20245;-53
2021/08/24 09:39:57;;;;;;;0.20;0.20;;;20.10;49.90;;;;;;4952075;28;20675;-50
2021/08/24 09:42:35;;;;;;;0.45;0.40;;;20.00;49.90;;;;;;4953128;28;20205;-55
2021/08/24 09:45:08;;;;;;;1.05;0.32;;;20.00;49.90;;;;;;4953400;28;20207;-60
2021/08/24 09:47:38;;;;;;;0.30;0.30;;;20.00;50.00;;;;;;4949718;28;20226;-56
2021/08/24 09:50:15;;;;;;;0.38;0.38;;;20.00;49.90;;;;;;4952505;28;20656;-54
2021/08/24 09:52:50;;;;;;;0.30;0.30;;;20.00;50.00;;;;;;4950855;28;20363;-56
2021/08/24 09:55:23;;;;;;;1.40;0.30;;;20.00;50.00;;;;;;4952460;28;20309;-65
2021/08/24 09:57:58;;;;;;;0.25;0.25;;;19.90;49.90;;;;;;4952382;28;20223;-60
2021/08/24 10:00:29;;;;;;;0.82;0.30;;;19.90;49.80;;;;;;4952883;28;20198;-65
2021/08/24 10:03:00;;;;;;;0.55;0.20;;;19.90;49.90;;;;;;4951880;28;20258;-65
2021/08/24 10:05:39;;;;;;;0.40;0.30;;;19.90;49.90;;;;;;4952663;28;20210;-53
2021/08/24 10:08:33;;;;;;;0.20;0.20;;;19.90;49.90;;;;;;4952388;28;20214;-65
2021/08/24 10:11:09;;;;;;;0.47;0.30;;;19.80;49.80;;;;;;4952703;28;20241;-63
2021/08/24 10:13:42;;;;;;;0.55;0.35;;;19.80;49.90;;;;;;4952085;28;20203;-59
2021/08/24 10:16:17;;;;;;;1.95;0.40;;;19.80;49.90;;;;;;4953201;28;20214;-63
2021/08/24 10:18:47;;;;;;;0.30;0.30;;;19.80;50.00;;;;;;4952018;28;20223;-56
2021/08/24 10:21:29;;;;;;;0.77;0.30;;;19.80;50.00;;;;;;4952855;28;20206;-60
2021/08/24 10:24:01;;;;;;;0.52;0.30;;;19.70;50.00;;;;;;4952429;28;20570;-61
2021/08/24 10:26:33;;;;;;;1.08;0.38;;;19.80;50.10;;;;;;4949342;28;20202;-61
2021/08/24 10:29:06;;;;;;;0.30;0.30;;;19.70;50.10;;;;;;4954599;28;20757;-65
2021/08/24 10:31:38;;;;;;;0.95;0.40;;;19.70;50.10;;;;;;4954801;28;20602;-65
2021/08/24 10:34:09;;;;;;;1.60;0.60;;;19.70;50.10;;;;;;4955374;28;20231;-54
2021/08/24 10:36:42;;;;;;;1.67;0.65;;;19.70;50.10;;;;;;4947981;28;20203;-65
2021/08/24 10:39:26;;;;;;;2.05;0.95;;;19.60;50.00;;;;;;4936008;29;20210;-65
2021/08/24 10:42:06;;;;;;;1.98;0.80;;;19.60;49.90;;;;;;4936704;29;20234;-66
2021/08/24 10:44:49;;;;;;;2.63;1.13;;;19.60;50.00;;;;;;4937220;29;20199;-66
2021/08/24 10:47:28;;;;;;;3.50;1.33;;;19.60;50.60;;;;;;4935342;29;20230;-65
2021/08/24 10:49:59;;;;;;;3.28;1.05;;;19.60;50.00;;;;;;4935685;29;20207;-65
2021/08/24 10:52:43;;;;;;;3.72;1.27;;;19.60;50.00;;;;;;4935324;29;20246;-64
2021/08/24 10:55:15;;;;;;;3.28;1.20;;;19.50;50.00;;;;;;4935871;29;20271;-65
2021/08/24 10:57:58;;;;;;;2.45;1.15;;;19.50;50.00;;;;;;4935593;29;20227;-65
2021/08/24 11:00:51;;;;;;;3.30;1.30;;;19.50;50.00;;;;;;4935911;29;20204;-65
2021/08/24 11:03:44;;;;;;;2.97;1.40;;;19.50;50.10;;;;;;4935298;29;20208;-65
2021/08/24 11:06:19;;;;;;;2.30;1.40;;;19.50;50.10;;;;;;4944744;28;20210;-66
2021/08/24 11:08:53;;;;;;;4.38;1.38;;;19.40;50.10;;;;;;4953863;28;20222;-64
2021/08/24 11:11:28;;;;;;;2.53;1.35;;;19.40;50.20;;;;;;4955000;28;20658;-58
2021/08/24 11:14:01;;;;;;;3.72;1.80;;;19.40;50.20;;;;;;4954228;28;20448;-54
2021/08/24 11:16:39;;;;;;;3.80;1.40;;;19.40;50.10;;;;;;4935944;29;20271;-65
2021/08/24 11:19:15;;;;;;;3.47;1.35;;;19.40;50.20;;;;;;4935585;29;20219;-63
2021/08/24 11:21:48;;;;;;;3.85;1.50;;;19.40;50.10;;;;;;4934714;29;20263;-63
2021/08/24 11:24:39;;;;;;;5.20;1.70;;;19.40;50.10;;;;;;4935355;29;20203;-65
2021/08/24 11:27:13;;;;;;;2.90;1.65;;;19.30;50.10;;;;;;4934883;29;20219;-65
2021/08/24 11:29:45;;;;;;;4.28;1.58;;;19.30;50.10;;;;;;4935553;29;20207;-64
2021/08/24 11:32:21;;;;;;;4.43;1.52;;;19.30;50.10;;;;;;4935414;29;20653;-63
2021/08/24 11:34:54;;;;;;;4.50;1.52;;;19.30;50.10;;;;;;4941870;29;20234;-64
2021/08/24 11:37:26;;;;;;;3.72;1.48;;;19.30;50.20;;;;;;4953332;28;20246;-65
2021/08/24 11:39:59;;;;;;;5.00;2.22;;;19.20;50.10;;;;;;4954269;28;20258;-65
2021/08/24 11:42:31;;;;;;;4.70;1.55;;;19.20;50.20;;;;;;4954162;28;20269;-63
2021/08/24 11:45:02;;;;;;;3.30;1.85;;;19.20;50.20;;;;;;4952045;28;20195;-65
2021/08/24 11:47:36;;;;;;;3.47;1.70;;;19.20;50.30;;;;;;4954540;28;20290;-65
2021/08/24 11:50:09;;;;;;;4.32;1.40;;;19.20;50.30;;;;;;4953956;28;20210;-65
2021/08/24 11:52:46;;;;;;;7.07;1.90;;;19.20;50.30;;;;;;4954442;28;20202;-62
2021/08/24 11:55:22;;;;;;;6.60;1.80;;;19.20;50.20;;;;;;4954366;28;20273;-51
2021/08/24 11:57:56;;;;;;;4.60;1.90;;;19.10;50.20;;;;;;4954517;28;20272;-63
2021/08/24 12:00:27;;;;;;;3.47;1.75;;;19.10;50.20;;;;;;4954804;28;20244;-54
2021/08/24 12:03:00;;;;;;;3.97;1.90;;;19.10;50.10;;;;;;4954100;28;20682;-58
2021/08/24 12:05:33;;;;;;;5.13;2.00;;;19.10;50.10;;;;;;4954067;28;20203;-57
2021/08/24 12:08:06;;;;;;;5.28;1.95;;;19.10;50.10;;;;;;4954406;28;20286;-65
2021/08/24 12:10:37;;;;;;;4.47;1.95;;;19.10;50.20;;;;;;4954313;28;20210;-61
2021/08/24 12:13:08;;;;;;;3.55;1.55;;;19.10;50.10;;;;;;4954025;28;20195;-59
2021/08/24 12:15:42;;;;;;;3.85;1.85;;;19.00;50.10;;;;;;4954074;28;20234;-61
2021/08/24 12:18:28;;;;;;;4.72;2.00;;;19.00;50.10;;;;;;4954142;28;20694;-61
2021/08/24 12:20:59;;;;;;;2.90;1.58;;;19.00;50.10;;;;;;4954294;28;20202;-53
2021/08/24 12:23:40;;;;;;;2.85;1.65;;;19.00;50.10;;;;;;4950906;28;20194;-51
2021/08/24 12:26:29;;;;;;;3.97;1.73;;;19.00;50.20;;;;;;4953620;28;20195;-51
2021/08/24 12:29:00;;;;;;;4.40;2.20;;;19.00;50.20;;;;;;4953810;28;20624;-53
2021/08/24 12:31:45;;;;;;;4.95;2.13;;;18.90;50.10;;;;;;4954209;28;20558;-54
2021/08/24 12:34:56;;;;;;;6.78;2.13;;;18.90;50.00;;;;;;4954053;28;20706;-52
2021/08/24 12:37:54;;;;;;;3.58;1.88;;;18.90;50.00;;;;;;4953562;28;20222;-55
2021/08/24 12:40:54;;;;;;;2.90;1.52;;;18.90;50.00;;;;;;4949437;28;20215;-63
2021/08/24 12:43:51;;;;;;;4.55;1.73;;;18.90;50.00;;;;;;4953951;28;20194;-59
2021/08/24 12:46:32;;;;;;;2.80;1.63;;;18.90;50.00;;;;;;4953601;28;20726;-54
2021/08/24 12:49:40;;;;;;;4.38;2.05;;;18.80;49.90;;;;;;4953520;28;20241;-52
2021/08/24 12:52:35;;;;;;;3.45;1.60;;;18.80;50.00;;;;;;4953425;28;20198;-55
2021/08/24 12:55:16;;;;;;;3.80;1.73;;;18.80;50.00;;;;;;4953690;28;20222;-55
2021/08/24 12:57:47;;;;;;;5.47;1.92;;;18.80;50.00;;;;;;4953107;28;20305;-51
2021/08/24 13:00:29;;;;;;;3.20;1.52;;;18.80;50.10;;;;;;4953363;28;20206;-58
2021/08/24 13:06:23;;;;;;;4.32;1.67;;;18.80;50.10;;;;;;4953723;29;20271;-54
2021/08/24 13:08:54;;;;;;;3.85;1.50;;;18.70;50.10;;;;;;4953683;28;20218;-54
2021/08/24 13:11:41;;;;;;;4.70;2.08;;;18.70;50.10;;;;;;4953765;28;20207;-51
2021/08/24 13:14:33;;;;;;;4.47;1.70;;;18.70;50.10;;;;;;4953830;28;20253;-59
2021/08/24 13:17:03;;;;;;;2.30;1.38;;;18.70;50.10;;;;;;4953337;28;20666;-56
2021/08/24 13:19:34;;;;;;;3.45;1.67;;;18.70;50.10;;;;;;4953502;28;20194;-62
2021/08/24 13:22:05;;;;;;;3.47;1.67;;;18.70;50.10;;;;;;4953176;28;20207;-60
2021/08/24 13:24:38;;;;;;;4.03;1.88;;;18.70;50.10;;;;;;4952954;28;20210;-61